Time;durP1;ratioP1;P1;durP2;ratioP2;P2;SDS_P1;SDS_P2;PMS_P1;PMS_P2;Temp;Humidity;BMP_temperature;BMP_pressure;BME280_temperature;BME280_humidity;BME280_pressure;Samples;Min_cycle;Max_cycle;Signal;HPM_P1;HPM_P2
2021/03/17 00:00:43;;;;;;;8.98;6.65;;;;;;;4.60;77.68;99087.25;5046731;28;20041;-70
2021/03/17 00:03:09;;;;;;;8.27;7.40;;;;;;;4.52;78.58;99074.19;5049126;28;20025;-71
2021/03/17 00:05:38;;;;;;;9.85;5.78;;;;;;;4.58;77.52;99087.19;5031954;28;20144;-71
2021/03/17 00:08:05;;;;;;;8.50;6.72;;;;;;;4.59;77.43;99090.66;5049249;28;20037;-70
2021/03/17 00:10:37;;;;;;;9.52;7.88;;;;;;;4.58;78.57;99094.88;5031881;28;20029;-68
2021/03/17 00:13:04;;;;;;;9.00;6.82;;;;;;;4.58;78.03;99094.88;5048995;28;20040;-69
2021/03/17 00:15:33;;;;;;;9.75;7.53;;;;;;;4.52;77.53;99092.06;5048785;28;20033;-71
2021/03/17 00:17:58;;;;;;;9.10;6.78;;;;;;;4.59;77.86;99098.31;5049025;28;20115;-71
2021/03/17 00:20:26;;;;;;;7.25;4.65;;;;;;;4.55;77.32;99097.31;5043758;28;20463;-70
2021/03/17 00:22:51;;;;;;;9.27;6.82;;;;;;;4.61;77.58;99095.00;5015686;28;20025;-70
2021/03/17 00:25:26;;;;;;;8.60;7.10;;;;;;;4.61;77.74;99089.00;5012963;28;20021;-70
2021/03/17 00:27:51;;;;;;;8.40;6.72;;;;;;;4.56;77.98;99076.06;5015175;28;20424;-68
2021/03/17 00:30:17;;;;;;;9.02;6.80;;;;;;;4.49;77.96;99085.16;5013699;28;20026;-71
2021/03/17 00:32:43;;;;;;;8.63;7.10;;;;;;;4.54;78.80;99091.31;5027930;28;20501;-69
2021/03/17 00:35:09;;;;;;;9.90;7.45;;;;;;;4.53;78.46;99086.16;5013426;28;20084;-68
2021/03/17 00:37:35;;;;;;;10.48;7.45;;;;;;;4.55;78.46;99089.66;5014850;28;20510;-70
2021/03/17 00:40:00;;;;;;;11.15;8.10;;;;;;;4.46;79.22;99077.38;5012603;28;20030;-70
2021/03/17 00:42:26;;;;;;;10.00;7.60;;;;;;;4.45;78.21;99067.97;5026854;28;20502;-69
2021/03/17 00:44:51;;;;;;;9.90;7.57;;;;;;;4.56;78.84;99081.19;5013812;28;20049;-67
2021/03/17 00:47:17;;;;;;;10.55;8.13;;;;;;;4.52;79.13;99074.19;5012706;28;20022;-68
2021/03/17 00:49:42;;;;;;;10.60;8.63;;;;;;;4.49;78.69;99069.81;5015920;28;20048;-72
2021/03/17 00:52:08;;;;;;;12.32;8.73;;;;;;;4.53;78.83;99069.13;5011246;28;20053;-72
2021/03/17 00:54:33;;;;;;;10.77;8.63;;;;;;;4.39;78.81;99044.75;5012002;28;20033;-72
2021/03/17 00:56:59;;;;;;;9.93;8.25;;;;;;;4.53;78.33;99056.34;5013785;28;20030;-67
2021/03/17 00:59:25;;;;;;;7.97;5.75;;;;;;;4.44;77.68;99050.03;5012650;28;20065;-68
2021/03/17 01:01:51;;;;;;;12.15;8.68;;;;;;;4.29;78.52;99029.88;5014953;28;20464;-72
2021/03/17 01:04:16;;;;;;;10.50;7.68;;;;;;;4.53;78.46;99061.44;5011553;28;20054;-68
2021/03/17 01:06:42;;;;;;;9.90;7.78;;;;;;;4.51;78.41;99060.53;5012457;28;20112;-68
2021/03/17 01:09:07;;;;;;;11.45;9.27;;;;;;;4.36;78.80;99042.94;5010817;28;20109;-69
2021/03/17 01:11:33;;;;;;;10.35;8.70;;;;;;;4.49;78.11;99053.63;5013155;28;20026;-66
2021/03/17 01:13:58;;;;;;;11.23;8.63;;;;;;;4.45;78.13;99054.31;5011909;28;20034;-69
2021/03/17 01:16:24;;;;;;;10.40;8.18;;;;;;;4.28;77.89;99028.13;5011287;28;20041;-70
2021/03/17 01:18:49;;;;;;;11.75;8.45;;;;;;;4.32;78.43;99035.94;5015882;28;20025;-70
2021/03/17 01:21:15;;;;;;;9.73;8.00;;;;;;;4.23;78.17;99011.75;5011984;28;20021;-69
2021/03/17 01:23:40;;;;;;;10.98;8.48;;;;;;;4.44;78.26;99050.03;5013016;28;20037;-69
2021/03/17 01:26:06;;;;;;;12.50;8.25;;;;;;;4.50;77.71;99050.28;5010918;28;20061;-67
2021/03/17 01:28:32;;;;;;;12.10;8.75;;;;;;;4.40;77.73;99037.94;5013709;28;20037;-70
2021/03/17 01:30:59;;;;;;;10.85;8.65;;;;;;;4.47;78.17;99048.44;5015028;28;20046;-70
2021/03/17 01:33:30;;;;;;;10.40;9.02;;;;;;;4.48;78.44;99039.97;5012191;28;20033;-69
2021/03/17 01:35:56;;;;;;;10.40;8.23;;;;;;;4.46;78.50;99043.28;5015976;28;20092;-72
2021/03/17 01:38:22;;;;;;;11.20;8.57;;;;;;;4.43;78.73;99050.84;5010903;28;20092;-71
2021/03/17 01:40:49;;;;;;;11.02;8.20;;;;;;;4.42;78.43;99042.28;5013242;28;20022;-72
2021/03/17 01:43:15;;;;;;;9.85;8.55;;;;;;;4.38;78.29;99045.53;5025628;28;20124;-70
2021/03/17 01:45:41;;;;;;;9.52;7.38;;;;;;;4.25;78.04;99025.44;5011063;28;20112;-70
2021/03/17 01:48:08;;;;;;;12.77;9.32;;;;;;;4.35;79.24;99046.31;5011120;28;20053;-69
2021/03/17 01:50:36;;;;;;;11.15;8.73;;;;;;;4.19;78.78;99010.75;5014448;28;20436;-68
2021/03/17 01:53:07;;;;;;;9.57;7.07;;;;;;;4.36;78.13;99035.28;5016406;28;20459;-70
2021/03/17 01:55:32;;;;;;;11.18;8.65;;;;;;;4.32;78.65;99051.28;5027131;28;20499;-69
2021/03/17 01:57:58;;;;;;;11.18;8.30;;;;;;;4.19;79.04;99013.31;5029865;28;20113;-70
2021/03/17 02:00:24;;;;;;;9.67;8.03;;;;;;;4.36;78.77;99037.81;5029910;28;20033;-69
2021/03/17 02:02:55;;;;;;;10.73;8.13;;;;;;;4.42;78.46;99047.41;5029863;28;20022;-70
2021/03/17 02:05:32;;;;;;;8.98;5.72;;;;;;;4.41;78.36;99045.69;5029710;28;20080;-70
2021/03/17 02:08:12;;;;;;;9.43;6.75;;;;;;;4.40;78.27;99045.59;5029974;28;20034;-66
2021/03/17 02:10:38;;;;;;;10.93;7.53;;;;;;;4.33;77.87;99024.06;5029725;28;20511;-71
2021/03/17 02:13:15;;;;;;;10.57;8.68;;;;;;;4.40;78.50;99040.50;5029616;28;20045;-66
2021/03/17 02:16:03;;;;;;;10.43;8.10;;;;;;;4.32;78.86;99032.53;5028972;28;20503;-70
2021/03/17 02:18:57;;;;;;;9.40;6.67;;;;;;;4.43;77.73;99048.28;5029493;28;20056;-68
2021/03/17 02:21:57;;;;;;;9.90;7.15;;;;;;;4.43;77.82;99040.63;4988276;28;20491;-65
2021/03/17 02:24:45;;;;;;;9.82;7.57;;;;;;;4.45;77.88;99052.66;4988037;28;20031;-69
2021/03/17 02:27:43;;;;;;;9.50;7.05;;;;;;;4.45;77.28;99039.88;4988061;28;20600;-70
2021/03/17 02:30:47;;;;;;;10.23;7.07;;;;;;;4.46;77.52;99036.50;4986831;28;20035;-70
2021/03/17 02:33:37;;;;;;;8.47;6.80;;;;;;;4.50;77.20;99038.34;4989900;28;20477;-69
2021/03/17 02:36:09;;;;;;;9.95;7.72;;;;;;;4.23;77.38;98999.84;4991619;28;20034;-68
2021/03/17 02:38:38;;;;;;;10.55;7.43;;;;;;;4.47;77.24;99042.47;4991040;28;20121;-68
2021/03/17 02:41:06;;;;;;;10.90;7.28;;;;;;;4.21;77.77;99004.91;4991708;28;20033;-67
2021/03/17 02:43:37;;;;;;;10.18;8.00;;;;;;;4.44;78.04;99044.94;4991573;28;20037;-68
2021/03/17 02:46:07;;;;;;;10.63;8.25;;;;;;;4.47;77.91;99040.78;4991137;28;20035;-66
2021/03/17 02:48:38;;;;;;;11.77;8.68;;;;;;;4.50;77.79;99042.59;4991666;28;20026;-68
2021/03/17 02:51:08;;;;;;;9.40;7.45;;;;;;;4.47;77.84;99039.91;4990639;28;20497;-66
2021/03/17 02:53:36;;;;;;;11.13;8.73;;;;;;;4.26;77.27;99001.63;4974852;28;20173;-69
2021/03/17 02:56:11;;;;;;;9.50;7.88;;;;;;;4.48;77.03;99039.97;4991590;28;20614;-66
2021/03/17 02:58:41;;;;;;;11.30;8.32;;;;;;;4.42;77.29;99026.09;5015743;28;20408;-68
2021/03/17 03:01:07;;;;;;;9.50;7.10;;;;;;;4.47;77.09;99051.00;5031571;28;20017;-66
2021/03/17 03:03:35;;;;;;;9.17;7.03;;;;;;;4.25;76.71;98998.22;5030898;28;21791;-68
2021/03/17 03:06:03;;;;;;;10.57;8.43;;;;;;;4.25;77.04;98997.34;5032823;28;20116;-67
2021/03/17 03:08:28;;;;;;;12.88;8.05;;;;;;;4.40;77.97;99037.94;5032947;28;20404;-70
2021/03/17 03:10:58;;;;;;;9.52;7.13;;;;;;;4.38;77.16;99030.22;5032678;28;20025;-66
2021/03/17 03:13:27;;;;;;;;;;;;;;;4.48;77.49;99052.75;5033214;28;20029;-67
2021/03/17 03:15:54;;;;;;;10.50;7.38;;;;;;;4.33;77.43;99032.59;5032372;28;19917;-69
2021/03/17 03:18:23;;;;;;;10.38;8.45;;;;;;;4.47;77.83;99052.69;5026073;28;20525;-65
2021/03/17 03:20:50;;;;;;;9.80;8.02;;;;;;;4.47;77.18;99045.03;5033091;28;20493;-69
2021/03/17 03:23:25;;;;;;;11.45;9.50;;;;;;;4.44;77.67;99045.78;5032888;28;20488;-67
2021/03/17 03:25:51;;;;;;;12.48;9.38;;;;;;;4.44;77.48;99043.22;5031301;28;20167;-68
2021/03/17 03:28:20;;;;;;;10.05;7.85;;;;;;;4.42;77.55;99039.72;5032233;28;20029;-68
2021/03/17 03:30:48;;;;;;;12.10;9.25;;;;;;;4.46;77.82;99048.38;5032411;28;20017;-68
2021/03/17 03:33:14;;;;;;;11.07;8.30;;;;;;;4.46;78.02;99046.72;5032829;28;20025;-68
2021/03/17 03:35:41;;;;;;;11.70;9.30;;;;;;;4.42;77.74;99049.09;5032115;28;20095;-70
2021/03/17 03:38:11;;;;;;;12.45;8.93;;;;;;;4.37;78.36;99031.03;5032409;28;20048;-65
2021/03/17 03:40:40;;;;;;;11.07;7.50;;;;;;;4.46;77.48;99051.84;5032194;28;20033;-70
2021/03/17 03:43:07;;;;;;;11.17;8.07;;;;;;;4.34;77.88;99038.59;5031448;28;20029;-65
2021/03/17 03:45:34;;;;;;;11.98;9.80;;;;;;;4.45;77.86;99046.63;5031637;28;20025;-69
2021/03/17 03:48:00;;;;;;;8.87;7.13;;;;;;;4.43;77.32;99049.16;5031909;28;20072;-69
2021/03/17 03:50:28;;;;;;;11.20;7.70;;;;;;;4.25;76.95;99013.56;5032247;28;20033;-70
2021/03/17 03:53:08;;;;;;;10.20;7.18;;;;;;;4.42;76.87;99038.88;5031802;28;20046;-73
2021/03/17 03:55:51;;;;;;;11.38;9.45;;;;;;;4.22;77.11;99013.41;5031474;28;20037;-71
2021/03/17 03:58:29;;;;;;;11.50;8.60;;;;;;;4.37;77.13;99041.25;5031777;28;20444;-71
2021/03/17 04:01:28;;;;;;;11.53;8.97;;;;;;;4.42;77.50;99049.09;5046315;28;20041;-70
2021/03/17 04:04:08;;;;;;;8.82;6.70;;;;;;;4.33;76.87;99045.34;5031361;28;20025;-72
2021/03/17 04:06:34;;;;;;;12.77;8.43;;;;;;;4.37;76.98;99048.91;5030988;28;20123;-69
2021/03/17 04:09:03;;;;;;;10.97;7.73;;;;;;;4.33;77.01;99040.25;5030018;28;20489;-71
2021/03/17 04:11:29;;;;;;;11.23;7.87;;;;;;;4.31;77.29;99051.22;5031637;28;20473;-67
2021/03/17 04:14:00;;;;;;;11.13;6.47;;;;;;;4.25;77.62;99040.75;5031407;28;20028;-68
2021/03/17 04:16:28;;;;;;;13.80;9.37;;;;;;;4.26;77.97;99042.50;5031176;28;20028;-68
2021/03/17 04:18:56;;;;;;;11.20;7.93;;;;;;;4.27;77.86;99052.78;5031474;28;20028;-69
2021/03/17 04:21:29;;;;;;;11.50;8.67;;;;;;;4.29;77.94;99048.63;5031729;28;20196;-67
2021/03/17 04:23:59;;;;;;;10.93;7.70;;;;;;;4.26;77.60;99045.06;5031037;28;20067;-70
2021/03/17 04:26:26;;;;;;;11.63;8.90;;;;;;;4.29;77.75;99061.38;5031461;28;20026;-70
2021/03/17 04:28:54;;;;;;;8.97;6.47;;;;;;;4.13;77.83;99038.63;5030603;28;20037;-70
2021/03/17 04:31:21;;;;;;;11.57;8.63;;;;;;;3.84;78.07;98992.38;5031345;28;20502;-70
2021/03/17 04:33:47;;;;;;;11.73;8.47;;;;;;;4.23;78.33;99062.84;5031019;28;20030;-70
2021/03/17 04:36:14;;;;;;;11.63;9.07;;;;;;;4.27;78.16;99059.59;5015433;28;20485;-70
2021/03/17 04:38:41;;;;;;;11.33;8.87;;;;;;;4.25;78.78;99062.09;4994325;28;20038;-66
2021/03/17 04:41:07;;;;;;;12.07;9.10;;;;;;;4.27;78.70;99059.59;5016599;28;20121;-66
2021/03/17 04:43:37;;;;;;;12.93;10.10;;;;;;;4.30;79.12;99072.47;5012272;28;20037;-71
2021/03/17 04:46:03;;;;;;;10.88;8.02;;;;;;;4.27;78.69;99062.16;5028400;28;20530;-70
2021/03/17 04:48:30;;;;;;;13.97;9.60;;;;;;;4.27;78.94;99068.13;5022288;28;20044;-69
2021/03/17 04:50:57;;;;;;;12.30;10.27;;;;;;;4.30;79.35;99067.34;5027042;28;20029;-68
2021/03/17 04:53:23;;;;;;;12.73;9.30;;;;;;;4.19;79.12;99056.75;5031342;28;20598;-67
2021/03/17 04:55:48;;;;;;;11.60;9.10;;;;;;;4.29;79.08;99069.06;5031016;28;20021;-71
2021/03/17 04:58:22;;;;;;;12.70;9.70;;;;;;;4.28;79.69;99069.84;5031156;28;20025;-67
2021/03/17 05:00:49;;;;;;;11.90;10.17;;;;;;;4.26;79.60;99066.41;5011899;28;20030;-69
2021/03/17 05:03:20;;;;;;;11.85;9.35;;;;;;;4.31;79.19;99074.22;5012740;28;20033;-69
2021/03/17 05:05:48;;;;;;;11.65;9.40;;;;;;;4.32;79.38;99076.81;5011094;28;20579;-69
2021/03/17 05:08:16;;;;;;;12.00;9.38;;;;;;;4.36;79.19;99077.81;5011187;28;20032;-69
2021/03/17 05:10:43;;;;;;;12.15;9.43;;;;;;;4.34;79.15;99080.31;5017093;28;20033;-68
2021/03/17 05:13:10;;;;;;;12.63;9.65;;;;;;;4.38;78.95;99083.88;5029944;28;20037;-67
2021/03/17 05:15:37;;;;;;;13.03;10.13;;;;;;;4.33;79.98;99081.13;5030734;28;20408;-68
2021/03/17 05:18:05;;;;;;;11.30;8.13;;;;;;;4.38;79.53;99083.88;5031150;28;20029;-68
2021/03/17 05:20:32;;;;;;;11.32;8.45;;;;;;;4.36;79.47;99086.38;5031038;28;20041;-70
2021/03/17 05:22:59;;;;;;;12.30;9.88;;;;;;;4.34;79.16;99082.03;5030767;28;20480;-69
2021/03/17 05:25:25;;;;;;;11.23;9.23;;;;;;;4.42;79.25;99084.88;5030992;28;20079;-70
2021/03/17 05:27:56;;;;;;;11.00;8.70;;;;;;;4.41;79.49;99088.22;5031259;28;20029;-67
2021/03/17 05:30:26;;;;;;;12.50;9.98;;;;;;;4.45;79.39;99088.41;5030706;28;20032;-72
2021/03/17 05:32:53;;;;;;;10.95;8.80;;;;;;;4.42;79.67;99093.41;5031088;28;20035;-66
2021/03/17 05:35:19;;;;;;;11.38;8.75;;;;;;;4.37;79.71;99083.00;5046252;28;20040;-67
2021/03/17 05:37:48;;;;;;;13.38;9.70;;;;;;;4.46;79.92;99092.72;5030446;28;20104;-71
2021/03/17 05:40:16;;;;;;;12.48;9.60;;;;;;;4.35;79.50;99076.97;5031164;28;20032;-67
2021/03/17 05:42:42;;;;;;;10.63;8.20;;;;;;;4.35;78.85;99086.31;5030815;28;20055;-70
2021/03/17 05:45:19;;;;;;;12.10;7.97;;;;;;;4.45;79.31;99093.53;5030983;28;20030;-67
2021/03/17 05:47:47;;;;;;;9.82;7.13;;;;;;;4.46;79.16;99097.84;5030517;28;20018;-71
2021/03/17 05:50:16;;;;;;;11.18;8.48;;;;;;;4.57;79.78;99098.22;5030549;28;20029;-67
2021/03/17 05:52:42;;;;;;;10.73;7.90;;;;;;;4.60;79.22;99102.59;5030775;28;20053;-68
2021/03/17 05:55:10;;;;;;;9.52;7.60;;;;;;;4.53;79.39;99088.72;5030973;28;20025;-67
2021/03/17 05:57:37;;;;;;;12.10;9.20;;;;;;;4.49;80.18;99099.63;5030920;28;20036;-67
2021/03/17 06:00:13;;;;;;;10.75;8.25;;;;;;;4.24;79.63;99051.78;5030696;28;20029;-69
2021/03/17 06:02:40;;;;;;;9.15;6.93;;;;;;;4.45;79.61;99102.88;5029521;28;20100;-69
2021/03/17 06:05:07;;;;;;;10.73;8.35;;;;;;;4.32;79.81;99081.94;5028917;28;20025;-70
2021/03/17 06:07:53;;;;;;;16.05;7.10;;;;;;;4.49;79.43;99112.41;5027056;28;20053;-70
2021/03/17 06:10:20;;;;;;;10.88;7.10;;;;;;;4.49;79.77;99120.94;5028374;28;20489;-67
2021/03/17 06:12:51;;;;;;;10.68;7.88;;;;;;;4.24;80.94;99082.44;5029987;28;20552;-69
2021/03/17 06:15:21;;;;;;;12.05;9.25;;;;;;;4.50;80.41;99124.38;5037211;28;20034;-70
2021/03/17 06:17:54;;;;;;;21.55;13.18;;;;;;;4.42;80.29;99105.31;5033633;28;20038;-69
2021/03/17 06:20:20;;;;;;;10.97;7.77;;;;;;;4.48;80.40;99120.88;5033852;28;20101;-67
2021/03/17 06:22:46;;;;;;;29.40;16.77;;;;;;;4.46;80.36;99117.38;5034213;28;20041;-68
2021/03/17 06:25:12;;;;;;;10.35;7.70;;;;;;;4.52;80.36;99135.53;5034047;28;20032;-66
2021/03/17 06:27:40;;;;;;;11.60;8.55;;;;;;;4.51;81.25;99139.78;5032021;28;20033;-67
2021/03/17 06:30:07;;;;;;;10.02;6.72;;;;;;;4.49;79.93;99137.97;5013315;28;20451;-69
2021/03/17 06:32:33;;;;;;;10.77;7.65;;;;;;;4.27;80.08;99091.09;4995355;28;20149;-70
2021/03/17 06:35:00;;;;;;;9.80;7.57;;;;;;;4.48;81.02;99137.06;5014708;28;20129;-68
2021/03/17 06:37:37;;;;;;;12.25;8.30;;;;;;;4.32;81.71;99110.03;5014646;28;20030;-69
2021/03/17 06:40:18;;;;;;;12.73;8.48;;;;;;;4.56;81.85;99142.53;5014728;28;20477;-69
2021/03/17 06:42:43;;;;;;;12.63;7.65;;;;;;;4.57;81.40;99143.38;5014531;28;20527;-69
2021/03/17 06:45:09;;;;;;;12.93;9.25;;;;;;;4.51;80.89;99119.31;5026010;28;20057;-70
2021/03/17 06:47:36;;;;;;;10.20;7.85;;;;;;;4.73;80.62;99149.97;5015864;28;20049;-70
2021/03/17 06:50:12;;;;;;;11.90;8.18;;;;;;;4.64;81.23;99145.38;5034466;28;20091;-69
2021/03/17 06:52:43;;;;;;;12.68;8.70;;;;;;;4.65;81.05;99158.19;5048116;28;20517;-70
2021/03/17 06:55:20;;;;;;;9.63;6.95;;;;;;;4.68;81.15;99153.19;5034274;28;20029;-70
2021/03/17 06:57:48;;;;;;;10.57;8.13;;;;;;;4.43;81.58;99107.91;5034264;28;20102;-70
2021/03/17 07:00:21;;;;;;;9.75;7.07;;;;;;;4.64;80.58;99146.22;5034281;28;20025;-70
2021/03/17 07:02:59;;;;;;;11.20;8.18;;;;;;;4.70;80.98;99155.84;5033706;28;20046;-70
2021/03/17 07:05:45;;;;;;;9.85;7.70;;;;;;;4.72;81.50;99153.34;5033958;28;20026;-70
2021/03/17 07:08:26;;;;;;;11.35;7.25;;;;;;;4.73;80.94;99158.50;5034289;28;20037;-70
2021/03/17 07:10:56;;;;;;;11.77;7.72;;;;;;;4.72;81.06;99169.53;5033728;28;20033;-70
2021/03/17 07:13:25;;;;;;;14.32;10.02;;;;;;;4.67;81.19;99164.25;5033825;28;20083;-70
2021/03/17 07:15:55;;;;;;;13.35;7.93;;;;;;;4.77;81.85;99177.38;5033660;28;20056;-70
2021/03/17 07:18:25;;;;;;;14.10;7.20;;;;;;;4.80;80.70;99172.41;5033035;28;20030;-70
2021/03/17 07:20:50;;;;;;;;;;;;;;;4.75;80.75;99166.22;5034296;28;20044;-70
2021/03/17 07:23:42;;;;;;;10.77;8.30;;;;;;;4.85;82.68;99176.03;5033656;28;19996;-70
2021/03/17 07:26:22;;;;;;;12.52;9.32;;;;;;;4.66;82.03;99143.72;5033600;28;20040;-70
2021/03/17 07:28:47;;;;;;;13.50;9.15;;;;;;;4.73;81.44;99170.44;5032907;28;20064;-70
2021/03/17 07:31:18;;;;;;;11.23;7.67;;;;;;;4.69;81.15;99177.09;5031360;28;20124;-70
2021/03/17 07:33:45;;;;;;;29.95;26.75;;;;;;;4.46;82.79;99145.50;5033572;28;20057;-70
2021/03/17 07:36:11;;;;;;;14.93;11.73;;;;;;;4.63;81.95;99177.72;5032230;28;20065;-70
2021/03/17 07:38:37;;;;;;;13.50;9.90;;;;;;;4.52;81.32;99169.63;5033384;28;20038;-71
2021/03/17 07:41:03;;;;;;;18.25;14.13;;;;;;;4.53;80.59;99186.69;5033421;28;20397;-70
2021/03/17 07:43:30;;;;;;;13.57;9.27;;;;;;;4.50;80.25;99194.25;5033476;28;20121;-71
2021/03/17 07:45:56;;;;;;;10.02;8.30;;;;;;;4.36;81.72;99163.03;5033299;28;20025;-71
2021/03/17 07:48:24;;;;;;;8.27;6.43;;;;;;;4.54;82.26;99202.91;5033432;28;20484;-71
2021/03/17 07:50:51;;;;;;;8.40;6.47;;;;;;;4.48;81.55;99190.75;5033180;28;20120;-71
2021/03/17 07:53:23;;;;;;;7.60;5.82;;;;;;;4.40;83.01;99178.47;5031287;28;20501;-71
2021/03/17 07:55:50;;;;;;;5.65;3.80;;;;;;;4.34;81.28;99182.53;5033092;28;20116;-71
2021/03/17 07:58:16;;;;;;;6.32;4.82;;;;;;;4.34;81.43;99191.88;5032787;28;20509;-70
2021/03/17 08:00:43;;;;;;;7.00;5.27;;;;;;;4.43;81.02;99196.50;5032641;28;20037;-70
2021/03/17 08:03:12;;;;;;;8.07;5.85;;;;;;;4.47;81.45;99196.66;5032668;28;20488;-70
2021/03/17 08:05:38;;;;;;;9.02;6.82;;;;;;;4.54;81.68;99206.34;5032428;28;20037;-70
2021/03/17 08:08:05;;;;;;;7.25;4.30;;;;;;;4.46;80.55;99187.28;5032743;28;20120;-70
2021/03/17 08:10:31;;;;;;;7.75;5.93;;;;;;;4.36;81.06;99165.59;5032672;28;20029;-70
2021/03/17 08:12:58;;;;;;;9.50;7.80;;;;;;;4.57;80.88;99185.13;5032555;28;20095;-70
2021/03/17 08:15:24;;;;;;;7.22;6.25;;;;;;;4.44;79.50;99157.38;5032705;28;20105;-70
2021/03/17 08:17:49;;;;;;;8.40;5.90;;;;;;;4.70;79.98;99194.19;5031519;28;20045;-70
2021/03/17 08:20:21;;;;;;;7.65;6.13;;;;;;;4.70;80.35;99201.84;5032507;28;20033;-70
2021/03/17 08:22:48;;;;;;;8.65;7.25;;;;;;;4.80;80.64;99201.41;5032559;28;20029;-70
2021/03/17 08:25:39;;;;;;;11.55;6.28;;;;;;;4.83;80.97;99201.50;5032157;28;20030;-69
2021/03/17 08:28:17;;;;;;;8.43;6.75;;;;;;;4.85;79.46;99207.56;4971069;28;20039;-73
2021/03/17 08:30:43;;;;;;;9.60;6.50;;;;;;;4.85;78.95;99202.44;4970481;28;20054;-67
2021/03/17 08:33:09;;;;;;;10.80;7.95;;;;;;;4.88;80.83;99201.69;4970769;28;20498;-68
2021/03/17 08:36:12;;;;;;;8.90;6.93;;;;;;;4.89;78.66;99203.44;4970731;28;20033;-70
2021/03/17 08:38:49;;;;;;;8.05;5.97;;;;;;;4.82;77.97;99191.22;4968111;28;20043;-69
2021/03/17 08:41:36;;;;;;;10.82;8.30;;;;;;;4.91;78.29;99209.50;4966861;28;20876;-69
2021/03/17 08:44:16;;;;;;;19.60;12.27;;;;;;;4.97;78.72;99217.41;4932307;29;20043;-69
2021/03/17 08:46:42;;;;;;;9.82;7.75;;;;;;;4.94;79.48;99217.28;4932509;29;20043;-69
2021/03/17 08:49:09;;;;;;;6.80;4.88;;;;;;;4.91;76.40;99212.06;4932460;29;20118;-69
2021/03/17 08:51:47;;;;;;;10.02;4.72;;;;;;;4.80;76.12;99208.22;4932208;29;20048;-69
2021/03/17 08:54:31;;;;;;;7.55;5.53;;;;;;;4.81;76.17;99212.47;4932394;29;20078;-70
2021/03/17 08:57:07;;;;;;;6.93;4.55;;;;;;;4.75;75.33;99213.13;4932304;29;20451;-69
2021/03/17 08:59:44;;;;;;;9.55;7.25;;;;;;;4.73;76.71;99227.53;4932277;29;20049;-70
2021/03/17 09:02:42;;;;;;;8.02;5.80;;;;;;;4.72;77.41;99217.25;4931410;29;20051;-69
2021/03/17 09:05:23;;;;;;;10.95;8.10;;;;;;;4.78;77.04;99225.16;4960690;28;20061;-69
2021/03/17 09:08:09;;;;;;;9.27;7.22;;;;;;;4.79;77.42;99216.69;4986709;28;20053;-70
2021/03/17 09:10:47;;;;;;;14.05;9.00;;;;;;;4.56;76.93;99185.97;4988462;28;20073;-69
2021/03/17 09:13:15;;;;;;;10.73;8.27;;;;;;;4.82;78.77;99224.47;4988493;28;20026;-69
2021/03/17 09:15:46;;;;;;;11.90;8.70;;;;;;;4.90;78.89;99224.75;4989328;28;20030;-69
2021/03/17 09:18:13;;;;;;;8.15;6.05;;;;;;;4.81;76.74;99228.72;4985984;28;20022;-69
2021/03/17 09:20:43;;;;;;;6.95;4.65;;;;;;;4.77;75.82;99220.84;5000297;28;20044;-69
2021/03/17 09:23:20;;;;;;;8.95;7.25;;;;;;;4.77;78.03;99234.53;5030311;28;20053;-71
2021/03/17 09:25:52;;;;;;;8.68;6.72;;;;;;;4.70;77.92;99233.41;5029909;28;20037;-70
2021/03/17 09:28:31;;;;;;;7.15;4.68;;;;;;;4.66;77.74;99236.66;5029468;28;20481;-70
2021/03/17 09:31:08;;;;;;;9.65;6.80;;;;;;;4.64;78.27;99232.28;5030414;28;20060;-69
2021/03/17 09:33:37;;;;;;;7.32;5.28;;;;;;;4.52;78.26;99218.19;5028491;28;20045;-69
2021/03/17 09:36:10;;;;;;;7.20;4.95;;;;;;;4.55;78.50;99225.13;5030953;28;20473;-70
2021/03/17 09:38:39;;;;;;;10.40;7.30;;;;;;;4.65;80.62;99239.16;5029149;28;20087;-70
2021/03/17 09:41:17;;;;;;;7.55;5.60;;;;;;;4.57;78.60;99245.63;5029085;28;20030;-68
2021/03/17 09:43:48;;;;;;;9.88;7.68;;;;;;;4.31;79.88;99219.84;5017705;28;20044;-69
2021/03/17 09:46:19;;;;;;;11.05;7.38;;;;;;;4.47;79.39;99260.56;5028873;28;20028;-69
2021/03/17 09:48:47;;;;;;;6.63;4.70;;;;;;;4.47;79.47;99252.03;5029965;28;20049;-67
2021/03/17 09:51:21;;;;;;;8.43;5.43;;;;;;;4.45;81.05;99246.88;5030314;28;20034;-69
2021/03/17 09:53:49;;;;;;;9.27;6.45;;;;;;;4.37;80.09;99248.22;5029507;28;20029;-69
2021/03/17 09:56:14;;;;;;;13.63;8.80;;;;;;;4.15;80.58;99220.88;5030181;28;20120;-70
2021/03/17 09:58:40;;;;;;;6.47;4.88;;;;;;;4.31;81.54;99255.63;5030513;28;20461;-69
2021/03/17 10:01:11;;;;;;;8.43;5.88;;;;;;;4.29;81.36;99253.00;5030195;28;20017;-67
2021/03/17 10:03:42;;;;;;;6.22;4.10;;;;;;;4.01;81.91;99226.28;5027239;28;20489;-70
2021/03/17 10:06:07;;;;;;;8.05;5.65;;;;;;;4.24;83.52;99271.50;5045417;28;20511;-71
2021/03/17 10:08:53;;;;;;;7.50;5.35;;;;;;;4.24;83.39;99261.28;5030213;28;20104;-69
2021/03/17 10:11:20;;;;;;;8.77;6.37;;;;;;;4.00;83.13;99232.19;5046521;28;20496;-71
2021/03/17 10:13:47;;;;;;;9.00;6.97;;;;;;;4.28;83.46;99270.84;5047881;28;20116;-70
2021/03/17 10:16:13;;;;;;;9.38;6.85;;;;;;;4.23;82.79;99278.28;5047167;28;20164;-73
2021/03/17 10:18:39;;;;;;;7.77;6.07;;;;;;;4.26;83.14;99275.88;5047350;28;20598;-71
2021/03/17 10:21:05;;;;;;;9.65;6.00;;;;;;;4.33;83.80;99279.56;5011526;28;20123;-70
2021/03/17 10:23:30;;;;;;;9.50;6.50;;;;;;;4.38;84.42;99290.84;4995444;28;20179;-69
2021/03/17 10:25:56;;;;;;;9.17;6.70;;;;;;;4.35;84.31;99283.06;5042993;28;20041;-69
2021/03/17 10:28:22;;;;;;;10.00;7.78;;;;;;;4.43;84.19;99286.81;5047418;28;20036;-70
2021/03/17 10:30:49;;;;;;;8.05;5.97;;;;;;;4.25;83.35;99258.81;5030725;28;20029;-71
2021/03/17 10:33:19;;;;;;;10.35;7.57;;;;;;;4.38;84.76;99268.72;5047955;28;20083;-70
2021/03/17 10:35:46;;;;;;;9.20;6.85;;;;;;;4.44;83.02;99303.03;5045863;28;20032;-69
2021/03/17 10:38:12;;;;;;;8.38;6.05;;;;;;;4.29;83.60;99250.44;5047725;28;20458;-69
2021/03/17 10:40:39;;;;;;;7.55;5.30;;;;;;;4.40;82.54;99296.00;5047133;28;20029;-67
2021/03/17 10:43:13;;;;;;;11.27;7.95;;;;;;;4.15;84.08;99261.75;5033298;28;20040;-69
2021/03/17 10:45:42;;;;;;;9.77;6.05;;;;;;;4.40;83.07;99299.47;5029403;28;20034;-69
2021/03/17 10:48:12;;;;;;;7.05;4.85;;;;;;;4.40;83.21;99309.69;5026330;28;20183;-70
2021/03/17 10:50:40;;;;;;;9.35;7.13;;;;;;;4.41;84.56;99305.44;5029501;28;20177;-69
2021/03/17 10:53:17;;;;;;;9.13;6.63;;;;;;;4.31;84.51;99299.94;5028462;28;20049;-69
2021/03/17 10:55:45;;;;;;;10.85;7.22;;;;;;;4.28;84.31;99314.25;5026598;28;20025;-68
2021/03/17 10:58:19;;;;;;;10.55;7.80;;;;;;;4.35;85.85;99316.28;5033211;28;20032;-70
2021/03/17 11:00:47;;;;;;;11.52;7.35;;;;;;;4.16;85.96;99281.38;5030529;28;20432;-71
2021/03/17 11:03:27;;;;;;;10.05;6.93;;;;;;;4.41;85.86;99315.66;5030766;28;20552;-74
2021/03/17 11:06:20;;;;;;;7.30;4.85;;;;;;;4.30;85.44;99323.75;5030039;28;20424;-70
2021/03/17 11:09:01;;;;;;;10.50;7.45;;;;;;;4.33;85.69;99315.34;5028653;28;20485;-68
2021/03/17 11:11:27;;;;;;;8.43;5.25;;;;;;;4.21;84.82;99310.56;5032497;28;20082;-71
2021/03/17 11:13:52;;;;;;;7.85;5.35;;;;;;;4.26;85.22;99324.44;5033281;28;20479;-70
2021/03/17 11:16:36;;;;;;;10.10;8.00;;;;;;;4.29;85.77;99310.91;5032947;28;20033;-70
2021/03/17 11:19:10;;;;;;;8.88;6.50;;;;;;;4.18;84.86;99315.53;5030523;28;20076;-71
2021/03/17 11:21:37;;;;;;;6.05;4.45;;;;;;;4.14;85.41;99323.88;5030029;28;20070;-71
2021/03/17 11:24:06;;;;;;;11.90;8.10;;;;;;;3.99;87.81;99281.53;5033695;28;20025;-71
2021/03/17 11:26:37;;;;;;;10.05;7.07;;;;;;;4.21;87.29;99323.31;5033526;28;20478;-72
2021/03/17 11:29:16;;;;;;;17.10;12.20;;;;;;;4.16;88.17;99320.59;5033520;28;20033;-71
2021/03/17 11:31:43;;;;;;;9.18;6.15;;;;;;;4.07;86.93;99321.84;5033346;28;20489;-71
2021/03/17 11:34:10;;;;;;;10.15;7.40;;;;;;;4.04;87.50;99320.91;5032457;28;20033;-70
2021/03/17 11:36:36;;;;;;;7.80;5.50;;;;;;;3.82;86.77;99300.34;5032500;28;20053;-71
2021/03/17 11:39:06;;;;;;;8.57;5.80;;;;;;;3.95;86.46;99325.63;5033584;28;20032;-71
2021/03/17 11:41:32;;;;;;;;;;;;;;;3.87;86.62;99319.28;5034240;28;20104;-72
2021/03/17 11:43:57;;;;;;;6.93;5.03;;;;;;;3.84;86.65;99324.25;5032053;28;20004;-71
2021/03/17 11:46:23;;;;;;;9.33;7.67;;;;;;;3.89;87.91;99331.31;5032773;28;20033;-71
2021/03/17 11:48:51;;;;;;;6.30;4.10;;;;;;;3.82;85.64;99333.53;5033113;28;20108;-72
2021/03/17 11:51:17;;;;;;;6.77;4.97;;;;;;;3.73;86.72;99316.09;5031326;28;20080;-71